sensor_id;sensor_type;location;lat;lon;timestamp;temperature;humidity
21316;DHT22;10817;55.820;13.030;2024-02-21T00:05:13;5.90;99.90
21316;DHT22;10817;55.820;13.030;2024-02-21T00:07:40;7.80;99.90
21316;DHT22;10817;55.820;13.030;2024-02-21T00:10:08;6.00;99.90
21316;DHT22;10817;55.820;13.030;2024-02-21T00:12:35;6.20;99.90
21316;DHT22;10817;55.820;13.030;2024-02-21T00:15:02;5.90;99.90
21316;DHT22;10817;55.820;13.030;2024-02-21T00:17:29;5.90;99.90
21316;DHT22;10817;55.820;13.030;2024-02-21T00:19:56;5.90;99.90
21316;DHT22;10817;55.820;13.030;2024-02-21T00:22:24;5.90;99.90
21316;DHT22;10817;55.820;13.030;2024-02-21T00:24:53;5.90;99.90
21316;DHT22;10817;55.820;13.030;2024-02-21T00:27:20;6.00;99.90
21316;DHT22;10817;55.820;13.030;2024-02-21T00:29:47;6.40;99.90
21316;DHT22;10817;55.820;13.030;2024-02-21T00:32:14;6.00;99.90
21316;DHT22;10817;55.820;13.030;2024-02-21T00:34:41;6.00;99.90
21316;DHT22;10817;55.820;13.030;2024-02-21T00:37:08;6.00;99.90
21316;DHT22;10817;55.820;13.030;2024-02-21T00:39:36;6.00;99.90
21316;DHT22;10817;55.820;13.030;2024-02-21T00:42:04;6.00;99.90
21316;DHT22;10817;55.820;13.030;2024-02-21T00:44:33;6.00;99.90
21316;DHT22;10817;55.820;13.030;2024-02-21T00:46:59;5.90;99.90
21316;DHT22;10817;55.820;13.030;2024-02-21T00:49:26;7.70;99.90
21316;DHT22;10817;55.820;13.030;2024-02-21T00:51:53;5.90;99.90
21316;DHT22;10817;55.820;13.030;2024-02-21T00:54:20;7.40;99.90
21316;DHT22;10817;55.820;13.030;2024-02-21T00:56:49;5.80;99.90
21316;DHT22;10817;55.820;13.030;2024-02-21T00:59:16;6.60;99.90
21316;DHT22;10817;55.820;13.030;2024-02-21T01:01:43;5.70;99.90
21316;DHT22;10817;55.820;13.030;2024-02-21T01:04:10;5.70;99.90
21316;DHT22;10817;55.820;13.030;2024-02-21T01:06:37;5.70;99.90
21316;DHT22;10817;55.820;13.030;2024-02-21T01:09:06;5.70;99.90
21316;DHT22;10817;55.820;13.030;2024-02-21T01:11:35;3.50;99.90
21316;DHT22;10817;55.820;13.030;2024-02-21T01:14:07;5.80;99.90
21316;DHT22;10817;55.820;13.030;2024-02-21T01:16:34;5.80;99.90
21316;DHT22;10817;55.820;13.030;2024-02-21T01:19:04;5.70;99.90
21316;DHT22;10817;55.820;13.030;2024-02-21T01:21:30;5.70;99.90
21316;DHT22;10817;55.820;13.030;2024-02-21T01:23:57;5.70;99.90
21316;DHT22;10817;55.820;13.030;2024-02-21T01:26:24;5.70;99.90
21316;DHT22;10817;55.820;13.030;2024-02-21T01:28:51;5.70;99.90
21316;DHT22;10817;55.820;13.030;2024-02-21T01:31:19;6.80;99.90
21316;DHT22;10817;55.820;13.030;2024-02-21T01:33:46;5.70;99.90
21316;DHT22;10817;55.820;13.030;2024-02-21T01:36:13;5.70;99.90
21316;DHT22;10817;55.820;13.030;2024-02-21T01:38:40;5.70;99.90
21316;DHT22;10817;55.820;13.030;2024-02-21T01:41:07;5.60;99.90
21316;DHT22;10817;55.820;13.030;2024-02-21T01:43:34;7.30;99.90
21316;DHT22;10817;55.820;13.030;2024-02-21T01:46:01;5.70;99.90
21316;DHT22;10817;55.820;13.030;2024-02-21T01:48:29;5.60;99.90
21316;DHT22;10817;55.820;13.030;2024-02-21T01:50:57;5.60;99.90
21316;DHT22;10817;55.820;13.030;2024-02-21T01:53:29;5.50;99.90
21316;DHT22;10817;55.820;13.030;2024-02-21T01:55:57;5.60;99.90
21316;DHT22;10817;55.820;13.030;2024-02-21T01:58:24;5.50;99.90
21316;DHT22;10817;55.820;13.030;2024-02-21T02:00:51;5.50;99.90
21316;DHT22;10817;55.820;13.030;2024-02-21T02:03:18;5.50;99.90
21316;DHT22;10817;55.820;13.030;2024-02-21T02:05:47;5.50;99.90
21316;DHT22;10817;55.820;13.030;2024-02-21T02:08:14;5.50;99.90
21316;DHT22;10817;55.820;13.030;2024-02-21T02:10:42;6.30;99.90
21316;DHT22;10817;55.820;13.030;2024-02-21T02:13:09;5.50;99.90
21316;DHT22;10817;55.820;13.030;2024-02-21T02:15:39;6.60;99.90
21316;DHT22;10817;55.820;13.030;2024-02-21T02:18:07;5.50;99.90
21316;DHT22;10817;55.820;13.030;2024-02-21T02:20:35;5.50;99.90
21316;DHT22;10817;55.820;13.030;2024-02-21T02:23:07;5.50;99.90
21316;DHT22;10817;55.820;13.030;2024-02-21T02:25:35;5.60;99.90
21316;DHT22;10817;55.820;13.030;2024-02-21T02:28:03;5.60;99.90
21316;DHT22;10817;55.820;13.030;2024-02-21T02:30:32;5.60;99.90
21316;DHT22;10817;55.820;13.030;2024-02-21T02:32:58;7.00;99.90
21316;DHT22;10817;55.820;13.030;2024-02-21T02:35:25;5.60;99.90
21316;DHT22;10817;55.820;13.030;2024-02-21T02:37:52;5.60;99.90
21316;DHT22;10817;55.820;13.030;2024-02-21T02:40:19;5.60;99.90
21316;DHT22;10817;55.820;13.030;2024-02-21T02:42:48;5.60;99.90
21316;DHT22;10817;55.820;13.030;2024-02-21T02:45:15;5.60;99.90
21316;DHT22;10817;55.820;13.030;2024-02-21T02:47:42;6.30;99.90
21316;DHT22;10817;55.820;13.030;2024-02-21T02:50:11;5.60;99.90
21316;DHT22;10817;55.820;13.030;2024-02-21T02:52:38;5.60;99.90
21316;DHT22;10817;55.820;13.030;2024-02-21T02:55:06;5.60;99.90
21316;DHT22;10817;55.820;13.030;2024-02-21T02:57:33;5.60;99.90
21316;DHT22;10817;55.820;13.030;2024-02-21T03:00:01;5.60;99.90
21316;DHT22;10817;55.820;13.030;2024-02-21T03:02:29;5.60;99.90
21316;DHT22;10817;55.820;13.030;2024-02-21T03:04:57;5.60;99.90
21316;DHT22;10817;55.820;13.030;2024-02-21T03:07:24;5.70;99.90
21316;DHT22;10817;55.820;13.030;2024-02-21T03:09:51;5.70;99.90
21316;DHT22;10817;55.820;13.030;2024-02-21T03:12:20;5.60;99.90
21316;DHT22;10817;55.820;13.030;2024-02-21T03:14:53;5.70;99.90
21316;DHT22;10817;55.820;13.030;2024-02-21T03:17:21;5.70;99.90
21316;DHT22;10817;55.820;13.030;2024-02-21T03:19:48;5.80;99.90
21316;DHT22;10817;55.820;13.030;2024-02-21T03:22:15;5.90;99.90
21316;DHT22;10817;55.820;13.030;2024-02-21T03:24:43;5.90;99.90
21316;DHT22;10817;55.820;13.030;2024-02-21T03:27:10;5.90;99.90
21316;DHT22;10817;55.820;13.030;2024-02-21T03:29:37;6.00;99.90
21316;DHT22;10817;55.820;13.030;2024-02-21T03:32:03;6.00;99.90
21316;DHT22;10817;55.820;13.030;2024-02-21T03:34:32;6.00;99.90
21316;DHT22;10817;55.820;13.030;2024-02-21T03:36:59;7.80;99.90
21316;DHT22;10817;55.820;13.030;2024-02-21T03:39:26;6.10;99.90
21316;DHT22;10817;55.820;13.030;2024-02-21T03:41:52;7.80;99.90
21316;DHT22;10817;55.820;13.030;2024-02-21T03:44:19;7.70;99.90
21316;DHT22;10817;55.820;13.030;2024-02-21T03:46:46;5.90;99.90
21316;DHT22;10817;55.820;13.030;2024-02-21T03:49:13;5.90;99.90
21316;DHT22;10817;55.820;13.030;2024-02-21T03:51:41;5.90;99.90
21316;DHT22;10817;55.820;13.030;2024-02-21T03:54:08;5.90;99.90
21316;DHT22;10817;55.820;13.030;2024-02-21T03:56:37;6.00;99.90
21316;DHT22;10817;55.820;13.030;2024-02-21T03:59:05;6.10;99.90
21316;DHT22;10817;55.820;13.030;2024-02-21T04:01:32;7.50;99.90
21316;DHT22;10817;55.820;13.030;2024-02-21T04:03:59;6.50;99.90
21316;DHT22;10817;55.820;13.030;2024-02-21T04:06:25;6.20;99.90
21316;DHT22;10817;55.820;13.030;2024-02-21T04:08:54;6.10;99.90
21316;DHT22;10817;55.820;13.030;2024-02-21T04:11:21;6.20;99.90
21316;DHT22;10817;55.820;13.030;2024-02-21T04:13:48;6.20;99.90
21316;DHT22;10817;55.820;13.030;2024-02-21T04:16:16;6.20;99.90
21316;DHT22;10817;55.820;13.030;2024-02-21T04:18:43;6.20;99.90
21316;DHT22;10817;55.820;13.030;2024-02-21T04:21:10;6.20;99.90
21316;DHT22;10817;55.820;13.030;2024-02-21T04:23:37;6.10;99.90
21316;DHT22;10817;55.820;13.030;2024-02-21T04:26:05;8.30;99.90
21316;DHT22;10817;55.820;13.030;2024-02-21T04:28:32;6.00;99.90
21316;DHT22;10817;55.820;13.030;2024-02-21T04:30:59;7.10;99.90
21316;DHT22;10817;55.820;13.030;2024-02-21T04:33:26;5.90;99.90
21316;DHT22;10817;55.820;13.030;2024-02-21T04:35:53;5.80;99.90
21316;DHT22;10817;55.820;13.030;2024-02-21T04:38:20;5.80;99.90
21316;DHT22;10817;55.820;13.030;2024-02-21T04:40:47;6.00;99.90
21316;DHT22;10817;55.820;13.030;2024-02-21T04:43:15;5.80;99.90
21316;DHT22;10817;55.820;13.030;2024-02-21T04:45:42;5.80;99.90
21316;DHT22;10817;55.820;13.030;2024-02-21T04:48:09;7.00;99.90
21316;DHT22;10817;55.820;13.030;2024-02-21T04:50:36;5.80;99.90
21316;DHT22;10817;55.820;13.030;2024-02-21T04:53:03;5.80;99.90
21316;DHT22;10817;55.820;13.030;2024-02-21T04:55:30;5.80;99.90
21316;DHT22;10817;55.820;13.030;2024-02-21T04:57:57;7.90;99.90
21316;DHT22;10817;55.820;13.030;2024-02-21T05:00:25;6.00;99.90
21316;DHT22;10817;55.820;13.030;2024-02-21T05:02:52;6.10;99.90
21316;DHT22;10817;55.820;13.030;2024-02-21T05:05:19;6.60;99.90
21316;DHT22;10817;55.820;13.030;2024-02-21T05:07:46;6.30;99.90
21316;DHT22;10817;55.820;13.030;2024-02-21T05:10:12;6.40;99.90
21316;DHT22;10817;55.820;13.030;2024-02-21T05:12:39;6.50;99.90
21316;DHT22;10817;55.820;13.030;2024-02-21T05:15:07;7.00;99.90
21316;DHT22;10817;55.820;13.030;2024-02-21T05:17:35;6.40;99.90
21316;DHT22;10817;55.820;13.030;2024-02-21T05:20:02;6.40;99.90
21316;DHT22;10817;55.820;13.030;2024-02-21T05:22:29;6.40;99.90
21316;DHT22;10817;55.820;13.030;2024-02-21T05:24:56;6.30;99.90
21316;DHT22;10817;55.820;13.030;2024-02-21T05:27:23;6.40;99.90
21316;DHT22;10817;55.820;13.030;2024-02-21T05:29:50;6.40;99.90
21316;DHT22;10817;55.820;13.030;2024-02-21T05:32:16;6.40;99.90
21316;DHT22;10817;55.820;13.030;2024-02-21T05:34:48;6.40;99.90
21316;DHT22;10817;55.820;13.030;2024-02-21T05:37:15;6.30;99.90
21316;DHT22;10817;55.820;13.030;2024-02-21T05:39:41;6.30;99.90
21316;DHT22;10817;55.820;13.030;2024-02-21T05:42:08;6.30;99.90
21316;DHT22;10817;55.820;13.030;2024-02-21T05:44:35;6.30;99.90
21316;DHT22;10817;55.820;13.030;2024-02-21T05:47:02;6.20;99.90
21316;DHT22;10817;55.820;13.030;2024-02-21T05:49:29;6.20;99.90
21316;DHT22;10817;55.820;13.030;2024-02-21T05:51:57;6.10;99.90
21316;DHT22;10817;55.820;13.030;2024-02-21T05:54:24;6.00;99.90
21316;DHT22;10817;55.820;13.030;2024-02-21T05:56:51;6.00;99.90
21316;DHT22;10817;55.820;13.030;2024-02-21T05:59:18;5.90;99.90
21316;DHT22;10817;55.820;13.030;2024-02-21T06:01:45;5.90;99.90
21316;DHT22;10817;55.820;13.030;2024-02-21T06:04:21;5.80;99.90
21316;DHT22;10817;55.820;13.030;2024-02-21T06:06:48;5.80;99.90
21316;DHT22;10817;55.820;13.030;2024-02-21T06:09:16;5.70;99.90
21316;DHT22;10817;55.820;13.030;2024-02-21T06:11:43;5.70;99.90
21316;DHT22;10817;55.820;13.030;2024-02-21T06:14:11;7.20;99.90
21316;DHT22;10817;55.820;13.030;2024-02-21T06:16:38;5.80;99.90
21316;DHT22;10817;55.820;13.030;2024-02-21T06:19:05;7.40;99.90
21316;DHT22;10817;55.820;13.030;2024-02-21T06:21:32;7.40;99.90
21316;DHT22;10817;55.820;13.030;2024-02-21T06:23:59;6.00;99.90
21316;DHT22;10817;55.820;13.030;2024-02-21T06:26:27;6.00;99.90
21316;DHT22;10817;55.820;13.030;2024-02-21T06:28:54;6.00;99.90
21316;DHT22;10817;55.820;13.030;2024-02-21T06:31:21;6.10;99.90
21316;DHT22;10817;55.820;13.030;2024-02-21T06:33:48;6.10;99.90
21316;DHT22;10817;55.820;13.030;2024-02-21T06:36:14;6.20;99.90
21316;DHT22;10817;55.820;13.030;2024-02-21T06:38:41;7.00;99.90
21316;DHT22;10817;55.820;13.030;2024-02-21T06:41:15;6.20;99.90
21316;DHT22;10817;55.820;13.030;2024-02-21T06:43:43;7.70;99.90
21316;DHT22;10817;55.820;13.030;2024-02-21T06:46:10;6.70;99.90
21316;DHT22;10817;55.820;13.030;2024-02-21T06:48:36;6.30;99.90
21316;DHT22;10817;55.820;13.030;2024-02-21T06:51:04;6.40;99.90
21316;DHT22;10817;55.820;13.030;2024-02-21T06:53:31;6.50;99.90
21316;DHT22;10817;55.820;13.030;2024-02-21T06:55:57;6.50;99.90
21316;DHT22;10817;55.820;13.030;2024-02-21T06:58:24;6.70;99.90
21316;DHT22;10817;55.820;13.030;2024-02-21T07:00:53;7.90;99.90
21316;DHT22;10817;55.820;13.030;2024-02-21T07:03:19;8.70;99.90
21316;DHT22;10817;55.820;13.030;2024-02-21T07:05:46;7.80;99.90
21316;DHT22;10817;55.820;13.030;2024-02-21T07:08:13;6.50;99.90
21316;DHT22;10817;55.820;13.030;2024-02-21T07:10:40;7.30;99.90
21316;DHT22;10817;55.820;13.030;2024-02-21T07:13:07;6.50;99.90
21316;DHT22;10817;55.820;13.030;2024-02-21T07:15:34;6.50;99.90
21316;DHT22;10817;55.820;13.030;2024-02-21T07:18:03;6.50;99.90
21316;DHT22;10817;55.820;13.030;2024-02-21T07:20:30;6.50;99.90
21316;DHT22;10817;55.820;13.030;2024-02-21T07:22:59;8.20;99.90
21316;DHT22;10817;55.820;13.030;2024-02-21T07:25:26;6.40;99.90
21316;DHT22;10817;55.820;13.030;2024-02-21T07:27:53;7.20;99.90
21316;DHT22;10817;55.820;13.030;2024-02-21T07:30:20;6.40;99.90
21316;DHT22;10817;55.820;13.030;2024-02-21T07:32:49;7.70;99.90
21316;DHT22;10817;55.820;13.030;2024-02-21T07:35:17;7.60;99.90
21316;DHT22;10817;55.820;13.030;2024-02-21T07:37:44;6.40;99.90
21316;DHT22;10817;55.820;13.030;2024-02-21T07:40:13;6.40;99.90
21316;DHT22;10817;55.820;13.030;2024-02-21T07:42:40;6.30;99.90
21316;DHT22;10817;55.820;13.030;2024-02-21T07:45:07;6.40;99.90
21316;DHT22;10817;55.820;13.030;2024-02-21T07:47:35;6.40;99.90
21316;DHT22;10817;55.820;13.030;2024-02-21T07:50:01;6.50;99.90
21316;DHT22;10817;55.820;13.030;2024-02-21T07:52:30;7.50;99.90
21316;DHT22;10817;55.820;13.030;2024-02-21T07:54:57;6.40;99.90
21316;DHT22;10817;55.820;13.030;2024-02-21T07:57:24;6.40;99.90
21316;DHT22;10817;55.820;13.030;2024-02-21T07:59:50;7.80;99.90
21316;DHT22;10817;55.820;13.030;2024-02-21T08:02:18;6.40;99.90
21316;DHT22;10817;55.820;13.030;2024-02-21T08:04:44;6.40;99.90
21316;DHT22;10817;55.820;13.030;2024-02-21T08:07:11;6.40;99.90
21316;DHT22;10817;55.820;13.030;2024-02-21T08:09:40;6.50;99.90
21316;DHT22;10817;55.820;13.030;2024-02-21T08:12:07;6.60;99.90
21316;DHT22;10817;55.820;13.030;2024-02-21T08:14:34;7.00;99.90
21316;DHT22;10817;55.820;13.030;2024-02-21T08:17:01;6.60;99.90
21316;DHT22;10817;55.820;13.030;2024-02-21T08:19:29;7.50;99.90
21316;DHT22;10817;55.820;13.030;2024-02-21T08:21:56;6.60;99.90
21316;DHT22;10817;55.820;13.030;2024-02-21T08:24:23;6.40;99.90
21316;DHT22;10817;55.820;13.030;2024-02-21T08:26:51;7.50;99.90
21316;DHT22;10817;55.820;13.030;2024-02-21T08:29:19;7.50;99.90
21316;DHT22;10817;55.820;13.030;2024-02-21T08:31:45;6.20;99.90
21316;DHT22;10817;55.820;13.030;2024-02-21T08:34:12;6.20;99.90
21316;DHT22;10817;55.820;13.030;2024-02-21T08:36:39;6.10;99.90
21316;DHT22;10817;55.820;13.030;2024-02-21T08:39:06;6.60;99.90
21316;DHT22;10817;55.820;13.030;2024-02-21T08:41:35;6.00;99.90
21316;DHT22;10817;55.820;13.030;2024-02-21T08:44:03;7.10;99.90
21316;DHT22;10817;55.820;13.030;2024-02-21T08:46:30;5.80;99.90
21316;DHT22;10817;55.820;13.030;2024-02-21T08:48:57;6.50;99.90
21316;DHT22;10817;55.820;13.030;2024-02-21T08:51:24;5.70;99.90
21316;DHT22;10817;55.820;13.030;2024-02-21T08:53:50;5.70;99.90
21316;DHT22;10817;55.820;13.030;2024-02-21T08:56:19;5.70;99.90
21316;DHT22;10817;55.820;13.030;2024-02-21T08:58:46;5.70;99.90
21316;DHT22;10817;55.820;13.030;2024-02-21T09:01:14;5.70;99.90
21316;DHT22;10817;55.820;13.030;2024-02-21T09:03:41;5.70;99.90
21316;DHT22;10817;55.820;13.030;2024-02-21T09:06:11;5.70;99.90
21316;DHT22;10817;55.820;13.030;2024-02-21T09:08:38;5.70;99.90
21316;DHT22;10817;55.820;13.030;2024-02-21T09:11:06;6.50;99.90
21316;DHT22;10817;55.820;13.030;2024-02-21T09:13:33;5.70;99.90
21316;DHT22;10817;55.820;13.030;2024-02-21T09:16:00;5.60;99.90
21316;DHT22;10817;55.820;13.030;2024-02-21T09:18:28;5.60;99.90
21316;DHT22;10817;55.820;13.030;2024-02-21T09:20:55;5.60;99.90
21316;DHT22;10817;55.820;13.030;2024-02-21T09:23:24;5.50;99.90
21316;DHT22;10817;55.820;13.030;2024-02-21T09:25:50;5.60;99.90
21316;DHT22;10817;55.820;13.030;2024-02-21T09:28:17;5.50;99.90
21316;DHT22;10817;55.820;13.030;2024-02-21T09:30:44;5.70;99.90
21316;DHT22;10817;55.820;13.030;2024-02-21T09:33:11;5.50;99.90
21316;DHT22;10817;55.820;13.030;2024-02-21T09:35:40;5.50;99.90
21316;DHT22;10817;55.820;13.030;2024-02-21T09:38:07;5.50;99.90
21316;DHT22;10817;55.820;13.030;2024-02-21T09:40:34;5.50;99.90
21316;DHT22;10817;55.820;13.030;2024-02-21T09:43:04;5.50;99.90
21316;DHT22;10817;55.820;13.030;2024-02-21T09:45:33;6.20;99.90
21316;DHT22;10817;55.820;13.030;2024-02-21T09:48:14;5.50;99.90
21316;DHT22;10817;55.820;13.030;2024-02-21T09:50:49;5.60;99.90
21316;DHT22;10817;55.820;13.030;2024-02-21T09:53:18;5.60;99.90
21316;DHT22;10817;55.820;13.030;2024-02-21T09:55:46;5.50;99.90
21316;DHT22;10817;55.820;13.030;2024-02-21T09:58:15;5.50;99.90
21316;DHT22;10817;55.820;13.030;2024-02-21T10:00:42;5.50;99.90
21316;DHT22;10817;55.820;13.030;2024-02-21T10:03:09;5.50;99.90
21316;DHT22;10817;55.820;13.030;2024-02-21T10:05:37;5.50;99.90
21316;DHT22;10817;55.820;13.030;2024-02-21T10:08:06;5.50;99.90
21316;DHT22;10817;55.820;13.030;2024-02-21T10:10:41;5.50;99.90
21316;DHT22;10817;55.820;13.030;2024-02-21T10:13:09;7.10;99.90
21316;DHT22;10817;55.820;13.030;2024-02-21T10:15:36;6.30;99.90
21316;DHT22;10817;55.820;13.030;2024-02-21T10:18:03;5.60;99.90
21316;DHT22;10817;55.820;13.030;2024-02-21T10:20:32;5.50;99.90
21316;DHT22;10817;55.820;13.030;2024-02-21T10:23:03;5.60;99.90
21316;DHT22;10817;55.820;13.030;2024-02-21T10:25:35;5.60;99.90
21316;DHT22;10817;55.820;13.030;2024-02-21T10:28:04;5.60;99.90
21316;DHT22;10817;55.820;13.030;2024-02-21T10:30:31;5.70;99.90
21316;DHT22;10817;55.820;13.030;2024-02-21T10:32:58;5.80;99.90
21316;DHT22;10817;55.820;13.030;2024-02-21T10:35:28;7.30;99.90
21316;DHT22;10817;55.820;13.030;2024-02-21T10:37:56;5.90;99.90
21316;DHT22;10817;55.820;13.030;2024-02-21T10:40:24;7.20;99.90
21316;DHT22;10817;55.820;13.030;2024-02-21T10:42:56;7.60;99.90
21316;DHT22;10817;55.820;13.030;2024-02-21T10:45:29;6.30;99.90
21316;DHT22;10817;55.820;13.030;2024-02-21T10:48:00;6.10;99.90
21316;DHT22;10817;55.820;13.030;2024-02-21T10:50:30;6.20;99.90
21316;DHT22;10817;55.820;13.030;2024-02-21T10:53:12;7.60;99.90
21316;DHT22;10817;55.820;13.030;2024-02-21T10:55:47;8.30;99.90
21316;DHT22;10817;55.820;13.030;2024-02-21T10:58:19;6.50;99.90
21316;DHT22;10817;55.820;13.030;2024-02-21T11:00:46;7.70;99.90
21316;DHT22;10817;55.820;13.030;2024-02-21T11:03:13;6.70;99.90
21316;DHT22;10817;55.820;13.030;2024-02-21T11:05:40;6.80;99.90
21316;DHT22;10817;55.820;13.030;2024-02-21T11:08:08;7.20;99.90
21316;DHT22;10817;55.820;13.030;2024-02-21T11:10:37;8.30;99.90
21316;DHT22;10817;55.820;13.030;2024-02-21T11:13:07;8.70;99.90
21316;DHT22;10817;55.820;13.030;2024-02-21T11:15:35;9.00;99.90
21316;DHT22;10817;55.820;13.030;2024-02-21T11:18:02;7.00;99.90
21316;DHT22;10817;55.820;13.030;2024-02-21T11:20:33;7.00;99.90
21316;DHT22;10817;55.820;13.030;2024-02-21T11:23:01;7.00;99.90
21316;DHT22;10817;55.820;13.030;2024-02-21T11:25:28;7.00;99.90
21316;DHT22;10817;55.820;13.030;2024-02-21T11:28:00;7.10;99.90
21316;DHT22;10817;55.820;13.030;2024-02-21T11:30:27;7.70;99.90
21316;DHT22;10817;55.820;13.030;2024-02-21T11:33:00;8.50;99.90
21316;DHT22;10817;55.820;13.030;2024-02-21T11:35:31;8.30;99.90
21316;DHT22;10817;55.820;13.030;2024-02-21T11:38:08;7.30;99.90
21316;DHT22;10817;55.820;13.030;2024-02-21T11:40:37;7.20;99.90
21316;DHT22;10817;55.820;13.030;2024-02-21T11:43:04;7.50;99.90
21316;DHT22;10817;55.820;13.030;2024-02-21T11:45:31;7.80;99.90
21316;DHT22;10817;55.820;13.030;2024-02-21T11:48:00;7.70;99.90
21316;DHT22;10817;55.820;13.030;2024-02-21T11:50:29;7.80;99.90
21316;DHT22;10817;55.820;13.030;2024-02-21T11:52:57;7.70;99.90
21316;DHT22;10817;55.820;13.030;2024-02-21T11:55:24;9.40;99.90
21316;DHT22;10817;55.820;13.030;2024-02-21T11:57:51;7.50;99.90
21316;DHT22;10817;55.820;13.030;2024-02-21T12:00:19;8.60;99.90
21316;DHT22;10817;55.820;13.030;2024-02-21T12:02:47;7.40;99.90
21316;DHT22;10817;55.820;13.030;2024-02-21T12:05:15;7.40;99.90
21316;DHT22;10817;55.820;13.030;2024-02-21T12:07:42;7.40;99.90
21316;DHT22;10817;55.820;13.030;2024-02-21T12:10:10;7.40;99.90
21316;DHT22;10817;55.820;13.030;2024-02-21T12:12:37;8.50;99.90
21316;DHT22;10817;55.820;13.030;2024-02-21T12:15:05;7.50;99.90
21316;DHT22;10817;55.820;13.030;2024-02-21T12:17:33;7.50;99.90
21316;DHT22;10817;55.820;13.030;2024-02-21T12:20:01;7.40;99.90
21316;DHT22;10817;55.820;13.030;2024-02-21T12:22:31;8.90;99.90
21316;DHT22;10817;55.820;13.030;2024-02-21T12:24:58;8.70;99.90
21316;DHT22;10817;55.820;13.030;2024-02-21T12:27:27;7.40;99.90
21316;DHT22;10817;55.820;13.030;2024-02-21T12:29:54;7.40;99.90
21316;DHT22;10817;55.820;13.030;2024-02-21T12:32:21;7.50;99.90
21316;DHT22;10817;55.820;13.030;2024-02-21T12:34:48;7.70;99.90
21316;DHT22;10817;55.820;13.030;2024-02-21T12:37:14;7.90;99.90
21316;DHT22;10817;55.820;13.030;2024-02-21T12:39:43;8.50;99.90
21316;DHT22;10817;55.820;13.030;2024-02-21T12:42:10;9.70;99.90
21316;DHT22;10817;55.820;13.030;2024-02-21T12:44:37;8.20;99.90
21316;DHT22;10817;55.820;13.030;2024-02-21T12:47:04;8.60;99.90
21316;DHT22;10817;55.820;13.030;2024-02-21T12:49:31;8.60;99.90
21316;DHT22;10817;55.820;13.030;2024-02-21T12:51:58;8.70;99.90
21316;DHT22;10817;55.820;13.030;2024-02-21T12:54:25;9.10;99.90
21316;DHT22;10817;55.820;13.030;2024-02-21T12:56:53;8.50;99.90
21316;DHT22;10817;55.820;13.030;2024-02-21T12:59:20;8.40;99.90
21316;DHT22;10817;55.820;13.030;2024-02-21T13:01:47;8.60;99.90
21316;DHT22;10817;55.820;13.030;2024-02-21T13:04:14;9.60;99.90
21316;DHT22;10817;55.820;13.030;2024-02-21T13:06:41;8.70;99.90
21316;DHT22;10817;55.820;13.030;2024-02-21T13:09:08;9.60;99.90
21316;DHT22;10817;55.820;13.030;2024-02-21T13:11:36;9.50;99.90
21316;DHT22;10817;55.820;13.030;2024-02-21T13:14:05;9.60;99.90
21316;DHT22;10817;55.820;13.030;2024-02-21T13:16:31;9.10;99.90
21316;DHT22;10817;55.820;13.030;2024-02-21T13:19:00;9.60;99.90
21316;DHT22;10817;55.820;13.030;2024-02-21T13:21:26;10.20;99.90
21316;DHT22;10817;55.820;13.030;2024-02-21T13:23:53;11.00;99.90
21316;DHT22;10817;55.820;13.030;2024-02-21T13:26:21;12.20;99.90
21316;DHT22;10817;55.820;13.030;2024-02-21T13:28:48;13.80;47.80
21316;DHT22;10817;55.820;13.030;2024-02-21T13:31:17;13.50;1.00
21316;DHT22;10817;55.820;13.030;2024-02-21T13:33:43;13.40;13.20
21316;DHT22;10817;55.820;13.030;2024-02-21T13:36:11;13.50;99.90
21316;DHT22;10817;55.820;13.030;2024-02-21T13:38:38;14.20;99.90
21316;DHT22;10817;55.820;13.030;2024-02-21T13:41:05;15.70;99.90
21316;DHT22;10817;55.820;13.030;2024-02-21T13:43:33;13.50;99.90
21316;DHT22;10817;55.820;13.030;2024-02-21T13:46:01;13.20;99.90
21316;DHT22;10817;55.820;13.030;2024-02-21T13:48:32;12.50;99.90
21316;DHT22;10817;55.820;13.030;2024-02-21T13:50:59;12.90;99.90
21316;DHT22;10817;55.820;13.030;2024-02-21T13:53:27;13.20;99.90
21316;DHT22;10817;55.820;13.030;2024-02-21T13:55:54;13.10;99.90
21316;DHT22;10817;55.820;13.030;2024-02-21T13:58:21;12.60;99.90
21316;DHT22;10817;55.820;13.030;2024-02-21T14:00:48;11.70;99.90
21316;DHT22;10817;55.820;13.030;2024-02-21T14:03:15;10.70;99.90
21316;DHT22;10817;55.820;13.030;2024-02-21T14:05:43;11.30;99.90
21316;DHT22;10817;55.820;13.030;2024-02-21T14:08:13;12.10;99.90
21316;DHT22;10817;55.820;13.030;2024-02-21T14:10:43;12.70;99.90
21316;DHT22;10817;55.820;13.030;2024-02-21T14:13:10;14.00;99.90
21316;DHT22;10817;55.820;13.030;2024-02-21T14:15:37;12.10;99.90
21316;DHT22;10817;55.820;13.030;2024-02-21T14:18:06;12.70;99.90
21316;DHT22;10817;55.820;13.030;2024-02-21T14:20:35;10.80;99.90
21316;DHT22;10817;55.820;13.030;2024-02-21T14:23:04;11.50;99.90
21316;DHT22;10817;55.820;13.030;2024-02-21T14:25:34;10.90;99.90
21316;DHT22;10817;55.820;13.030;2024-02-21T14:28:09;11.40;99.90
21316;DHT22;10817;55.820;13.030;2024-02-21T14:30:42;11.40;99.90
21316;DHT22;10817;55.820;13.030;2024-02-21T14:33:10;11.60;99.90
21316;DHT22;10817;55.820;13.030;2024-02-21T14:35:37;11.10;99.90
21316;DHT22;10817;55.820;13.030;2024-02-21T14:38:06;9.70;99.90
21316;DHT22;10817;55.820;13.030;2024-02-21T14:41:32;10.10;94.20
21316;DHT22;10817;55.820;13.030;2024-02-21T14:43:48;8.00;53.50
21316;DHT22;10817;55.820;13.030;2024-02-21T14:46:17;9.30;15.20
21316;DHT22;10817;55.820;13.030;2024-02-21T14:49:49;13.30;1.00
21316;DHT22;10817;55.820;13.030;2024-02-21T14:52:16;12.50;1.00
21316;DHT22;10817;55.820;13.030;2024-02-21T14:54:44;12.40;1.00
21316;DHT22;10817;55.820;13.030;2024-02-21T14:57:19;12.10;1.00
21316;DHT22;10817;55.820;13.030;2024-02-21T14:59:46;10.90;39.90
21316;DHT22;10817;55.820;13.030;2024-02-21T15:02:29;10.90;13.10
21316;DHT22;10817;55.820;13.030;2024-02-21T15:05:15;11.10;1.00
21316;DHT22;10817;55.820;13.030;2024-02-21T15:07:46;10.20;1.00
21316;DHT22;10817;55.820;13.030;2024-02-21T15:10:14;11.00;99.90
21316;DHT22;10817;55.820;13.030;2024-02-21T15:12:44;13.50;99.90
21316;DHT22;10817;55.820;13.030;2024-02-21T15:15:11;11.20;99.90
21316;DHT22;10817;55.820;13.030;2024-02-21T15:17:38;10.60;99.90
21316;DHT22;10817;55.820;13.030;2024-02-21T15:24:20;9.50;99.90
21316;DHT22;10817;55.820;13.030;2024-02-21T15:26:49;6.60;99.90
21316;DHT22;10817;55.820;13.030;2024-02-21T15:29:17;9.00;99.90
21316;DHT22;10817;55.820;13.030;2024-02-21T15:31:43;8.50;99.90
21316;DHT22;10817;55.820;13.030;2024-02-21T15:34:13;9.40;99.90
21316;DHT22;10817;55.820;13.030;2024-02-21T15:36:41;8.10;99.90
21316;DHT22;10817;55.820;13.030;2024-02-21T15:39:08;9.10;99.90
21316;DHT22;10817;55.820;13.030;2024-02-21T15:41:36;9.50;99.90
21316;DHT22;10817;55.820;13.030;2024-02-21T15:44:04;7.70;99.90